sensor_id;sensor_type;location;lat;lon;timestamp;P1;durP1;ratioP1;P2;durP2;ratioP2
73980;SDS011;62348;51.412;5.436;2023-06-22T00:01:52;4.03;;;2.63;;
73980;SDS011;62348;51.412;5.436;2023-06-22T00:04:17;6.78;;;2.63;;
73980;SDS011;62348;51.412;5.436;2023-06-22T00:06:43;3.70;;;2.72;;
73980;SDS011;62348;51.412;5.436;2023-06-22T00:09:08;3.80;;;2.90;;
73980;SDS011;62348;51.412;5.436;2023-06-22T00:11:35;2.83;;;2.42;;
73980;SDS011;62348;51.412;5.436;2023-06-22T00:14:01;4.15;;;2.75;;
73980;SDS011;62348;51.412;5.436;2023-06-22T00:16:26;2.80;;;2.40;;
73980;SDS011;62348;51.412;5.436;2023-06-22T00:18:52;5.10;;;2.58;;
73980;SDS011;62348;51.412;5.436;2023-06-22T00:21:17;2.80;;;2.50;;
73980;SDS011;62348;51.412;5.436;2023-06-22T00:23:45;3.45;;;2.80;;
73980;SDS011;62348;51.412;5.436;2023-06-22T00:26:10;4.43;;;2.72;;
73980;SDS011;62348;51.412;5.436;2023-06-22T00:28:36;4.75;;;3.15;;
73980;SDS011;62348;51.412;5.436;2023-06-22T00:31:02;4.38;;;3.20;;
73980;SDS011;62348;51.412;5.436;2023-06-22T00:33:27;5.35;;;3.42;;
73980;SDS011;62348;51.412;5.436;2023-06-22T00:35:53;4.75;;;3.58;;
73980;SDS011;62348;51.412;5.436;2023-06-22T00:38:19;4.75;;;3.67;;
73980;SDS011;62348;51.412;5.436;2023-06-22T00:40:45;5.50;;;3.97;;
73980;SDS011;62348;51.412;5.436;2023-06-22T00:43:10;5.20;;;4.28;;
73980;SDS011;62348;51.412;5.436;2023-06-22T00:45:36;11.10;;;7.15;;
73980;SDS011;62348;51.412;5.436;2023-06-22T00:48:01;7.50;;;6.72;;
73980;SDS011;62348;51.412;5.436;2023-06-22T00:50:32;8.65;;;7.32;;
73980;SDS011;62348;51.412;5.436;2023-06-22T00:52:59;7.38;;;5.55;;
73980;SDS011;62348;51.412;5.436;2023-06-22T00:55:29;9.40;;;7.72;;
73980;SDS011;62348;51.412;5.436;2023-06-22T00:57:54;9.40;;;8.38;;
73980;SDS011;62348;51.412;5.436;2023-06-22T01:00:20;8.93;;;7.68;;
73980;SDS011;62348;51.412;5.436;2023-06-22T01:02:47;10.60;;;7.63;;
73980;SDS011;62348;51.412;5.436;2023-06-22T01:05:16;12.48;;;7.85;;
73980;SDS011;62348;51.412;5.436;2023-06-22T01:16:23;10.48;;;8.45;;
73980;SDS011;62348;51.412;5.436;2023-06-22T01:18:52;11.13;;;9.07;;
73980;SDS011;62348;51.412;5.436;2023-06-22T01:21:21;12.05;;;8.77;;
73980;SDS011;62348;51.412;5.436;2023-06-22T01:24:10;11.18;;;8.57;;
73980;SDS011;62348;51.412;5.436;2023-06-22T01:26:43;11.07;;;9.00;;
73980;SDS011;62348;51.412;5.436;2023-06-22T01:29:30;9.75;;;8.75;;
73980;SDS011;62348;51.412;5.436;2023-06-22T01:31:58;10.48;;;8.48;;
73980;SDS011;62348;51.412;5.436;2023-06-22T01:34:25;10.45;;;8.23;;
73980;SDS011;62348;51.412;5.436;2023-06-22T01:36:52;9.18;;;8.05;;
73980;SDS011;62348;51.412;5.436;2023-06-22T01:39:18;11.77;;;9.77;;
73980;SDS011;62348;51.412;5.436;2023-06-22T01:41:45;10.63;;;9.52;;
73980;SDS011;62348;51.412;5.436;2023-06-22T01:44:12;9.70;;;8.57;;
73980;SDS011;62348;51.412;5.436;2023-06-22T01:46:38;9.95;;;7.93;;
73980;SDS011;62348;51.412;5.436;2023-06-22T01:49:05;10.65;;;7.93;;
73980;SDS011;62348;51.412;5.436;2023-06-22T01:51:31;10.82;;;7.45;;
73980;SDS011;62348;51.412;5.436;2023-06-22T01:53:56;11.15;;;8.57;;
73980;SDS011;62348;51.412;5.436;2023-06-22T01:56:22;8.75;;;7.80;;
73980;SDS011;62348;51.412;5.436;2023-06-22T01:58:52;11.27;;;8.57;;
73980;SDS011;62348;51.412;5.436;2023-06-22T02:01:24;10.80;;;8.23;;
73980;SDS011;62348;51.412;5.436;2023-06-22T02:04:06;11.73;;;8.18;;
73980;SDS011;62348;51.412;5.436;2023-06-22T02:06:37;9.63;;;8.13;;
73980;SDS011;62348;51.412;5.436;2023-06-22T02:09:12;10.30;;;9.23;;
73980;SDS011;62348;51.412;5.436;2023-06-22T02:11:42;9.75;;;7.82;;
73980;SDS011;62348;51.412;5.436;2023-06-22T02:14:10;9.98;;;8.63;;
73980;SDS011;62348;51.412;5.436;2023-06-22T02:16:38;12.45;;;8.30;;
73980;SDS011;62348;51.412;5.436;2023-06-22T02:19:04;11.18;;;9.00;;
73980;SDS011;62348;51.412;5.436;2023-06-22T02:21:31;9.63;;;8.45;;
73980;SDS011;62348;51.412;5.436;2023-06-22T02:23:57;8.68;;;7.75;;
73980;SDS011;62348;51.412;5.436;2023-06-22T02:26:23;9.77;;;8.80;;
73980;SDS011;62348;51.412;5.436;2023-06-22T02:28:50;10.35;;;9.23;;
73980;SDS011;62348;51.412;5.436;2023-06-22T02:31:15;13.35;;;9.27;;
73980;SDS011;62348;51.412;5.436;2023-06-22T02:33:41;11.23;;;8.75;;
73980;SDS011;62348;51.412;5.436;2023-06-22T02:36:06;11.35;;;9.85;;
73980;SDS011;62348;51.412;5.436;2023-06-22T02:38:34;10.68;;;9.57;;
73980;SDS011;62348;51.412;5.436;2023-06-22T02:41:01;10.30;;;9.20;;
73980;SDS011;62348;51.412;5.436;2023-06-22T02:43:27;10.85;;;9.70;;
73980;SDS011;62348;51.412;5.436;2023-06-22T02:45:52;13.75;;;10.52;;
73980;SDS011;62348;51.412;5.436;2023-06-22T02:48:18;11.68;;;9.13;;
73980;SDS011;62348;51.412;5.436;2023-06-22T02:50:43;12.13;;;9.77;;
73980;SDS011;62348;51.412;5.436;2023-06-22T02:53:08;12.57;;;9.23;;
73980;SDS011;62348;51.412;5.436;2023-06-22T02:55:34;13.13;;;10.60;;
73980;SDS011;62348;51.412;5.436;2023-06-22T02:57:59;11.25;;;9.77;;
73980;SDS011;62348;51.412;5.436;2023-06-22T03:00:29;10.25;;;9.25;;
73980;SDS011;62348;51.412;5.436;2023-06-22T03:02:56;10.70;;;9.13;;
73980;SDS011;62348;51.412;5.436;2023-06-22T03:05:22;13.25;;;9.32;;
73980;SDS011;62348;51.412;5.436;2023-06-22T03:07:48;12.27;;;9.05;;
73980;SDS011;62348;51.412;5.436;2023-06-22T03:10:14;11.85;;;8.43;;
73980;SDS011;62348;51.412;5.436;2023-06-22T03:12:40;13.23;;;10.65;;
73980;SDS011;62348;51.412;5.436;2023-06-22T03:15:07;10.77;;;8.95;;
73980;SDS011;62348;51.412;5.436;2023-06-22T03:17:34;11.55;;;10.02;;
73980;SDS011;62348;51.412;5.436;2023-06-22T03:20:00;15.25;;;9.82;;
73980;SDS011;62348;51.412;5.436;2023-06-22T03:22:26;15.48;;;11.15;;
73980;SDS011;62348;51.412;5.436;2023-06-22T03:24:51;12.60;;;11.05;;
73980;SDS011;62348;51.412;5.436;2023-06-22T03:27:17;14.13;;;10.60;;
73980;SDS011;62348;51.412;5.436;2023-06-22T03:29:43;14.20;;;10.60;;
73980;SDS011;62348;51.412;5.436;2023-06-22T03:32:10;13.43;;;10.02;;
73980;SDS011;62348;51.412;5.436;2023-06-22T03:34:36;15.23;;;10.77;;
73980;SDS011;62348;51.412;5.436;2023-06-22T03:37:01;16.02;;;11.60;;
73980;SDS011;62348;51.412;5.436;2023-06-22T03:39:28;13.38;;;11.75;;
73980;SDS011;62348;51.412;5.436;2023-06-22T03:41:53;20.02;;;12.50;;
73980;SDS011;62348;51.412;5.436;2023-06-22T03:44:18;13.90;;;11.50;;
73980;SDS011;62348;51.412;5.436;2023-06-22T03:46:44;12.10;;;10.98;;
73980;SDS011;62348;51.412;5.436;2023-06-22T03:49:09;12.63;;;11.00;;
73980;SDS011;62348;51.412;5.436;2023-06-22T03:51:35;12.20;;;10.73;;
73980;SDS011;62348;51.412;5.436;2023-06-22T03:54:00;14.05;;;12.05;;
73980;SDS011;62348;51.412;5.436;2023-06-22T03:56:26;13.68;;;12.27;;
73980;SDS011;62348;51.412;5.436;2023-06-22T03:58:51;14.90;;;11.23;;
73980;SDS011;62348;51.412;5.436;2023-06-22T04:01:16;13.48;;;12.02;;
73980;SDS011;62348;51.412;5.436;2023-06-22T04:03:42;12.43;;;10.85;;
73980;SDS011;62348;51.412;5.436;2023-06-22T04:06:08;14.73;;;13.02;;
73980;SDS011;62348;51.412;5.436;2023-06-22T04:08:33;14.43;;;12.70;;
73980;SDS011;62348;51.412;5.436;2023-06-22T04:10:59;12.90;;;11.50;;
73980;SDS011;62348;51.412;5.436;2023-06-22T04:13:24;14.38;;;11.82;;
73980;SDS011;62348;51.412;5.436;2023-06-22T04:15:50;14.23;;;12.13;;
73980;SDS011;62348;51.412;5.436;2023-06-22T04:18:15;16.98;;;12.98;;
73980;SDS011;62348;51.412;5.436;2023-06-22T04:20:40;14.20;;;12.05;;
73980;SDS011;62348;51.412;5.436;2023-06-22T04:23:06;14.50;;;11.85;;
73980;SDS011;62348;51.412;5.436;2023-06-22T04:25:31;13.88;;;12.00;;
73980;SDS011;62348;51.412;5.436;2023-06-22T04:27:56;16.92;;;11.98;;
73980;SDS011;62348;51.412;5.436;2023-06-22T04:30:22;14.57;;;12.77;;
73980;SDS011;62348;51.412;5.436;2023-06-22T04:32:47;17.30;;;12.98;;
73980;SDS011;62348;51.412;5.436;2023-06-22T04:35:21;13.73;;;12.27;;
73980;SDS011;62348;51.412;5.436;2023-06-22T04:37:47;13.77;;;12.32;;
73980;SDS011;62348;51.412;5.436;2023-06-22T04:40:14;16.60;;;13.00;;
73980;SDS011;62348;51.412;5.436;2023-06-22T04:42:40;14.82;;;13.27;;
73980;SDS011;62348;51.412;5.436;2023-06-22T04:45:07;14.13;;;12.70;;
73980;SDS011;62348;51.412;5.436;2023-06-22T04:47:35;16.10;;;13.18;;
73980;SDS011;62348;51.412;5.436;2023-06-22T04:50:04;15.93;;;13.27;;
73980;SDS011;62348;51.412;5.436;2023-06-22T04:52:30;15.40;;;13.80;;
73980;SDS011;62348;51.412;5.436;2023-06-22T04:54:56;17.13;;;14.63;;
73980;SDS011;62348;51.412;5.436;2023-06-22T04:57:22;17.40;;;15.60;;
73980;SDS011;62348;51.412;5.436;2023-06-22T04:59:58;17.35;;;15.02;;
73980;SDS011;62348;51.412;5.436;2023-06-22T05:02:36;17.85;;;16.05;;
73980;SDS011;62348;51.412;5.436;2023-06-22T05:05:02;17.23;;;14.95;;
73980;SDS011;62348;51.412;5.436;2023-06-22T05:07:31;24.85;;;16.25;;
73980;SDS011;62348;51.412;5.436;2023-06-22T05:10:03;16.55;;;14.75;;
73980;SDS011;62348;51.412;5.436;2023-06-22T05:12:29;19.00;;;16.10;;
73980;SDS011;62348;51.412;5.436;2023-06-22T05:14:55;18.52;;;15.80;;
73980;SDS011;62348;51.412;5.436;2023-06-22T05:17:21;19.30;;;16.88;;
73980;SDS011;62348;51.412;5.436;2023-06-22T05:19:46;20.10;;;16.70;;
73980;SDS011;62348;51.412;5.436;2023-06-22T05:22:16;19.80;;;16.38;;
73980;SDS011;62348;51.412;5.436;2023-06-22T05:24:42;25.33;;;18.05;;
73980;SDS011;62348;51.412;5.436;2023-06-22T05:27:08;23.55;;;17.35;;
73980;SDS011;62348;51.412;5.436;2023-06-22T05:29:33;20.40;;;17.33;;
73980;SDS011;62348;51.412;5.436;2023-06-22T05:32:00;21.45;;;16.75;;
73980;SDS011;62348;51.412;5.436;2023-06-22T05:34:26;19.17;;;17.15;;
73980;SDS011;62348;51.412;5.436;2023-06-22T05:36:51;18.48;;;16.42;;
73980;SDS011;62348;51.412;5.436;2023-06-22T05:39:17;18.98;;;16.48;;
73980;SDS011;62348;51.412;5.436;2023-06-22T05:41:42;19.88;;;17.13;;
73980;SDS011;62348;51.412;5.436;2023-06-22T05:44:08;19.50;;;16.38;;
73980;SDS011;62348;51.412;5.436;2023-06-22T05:46:34;20.67;;;16.73;;
73980;SDS011;62348;51.412;5.436;2023-06-22T05:48:59;21.45;;;16.88;;
73980;SDS011;62348;51.412;5.436;2023-06-22T05:51:25;21.27;;;17.70;;
73980;SDS011;62348;51.412;5.436;2023-06-22T05:53:50;19.42;;;16.38;;
73980;SDS011;62348;51.412;5.436;2023-06-22T05:56:16;19.33;;;16.50;;
73980;SDS011;62348;51.412;5.436;2023-06-22T05:58:41;21.73;;;16.90;;
73980;SDS011;62348;51.412;5.436;2023-06-22T06:01:07;26.00;;;18.00;;
73980;SDS011;62348;51.412;5.436;2023-06-22T06:03:32;19.45;;;16.88;;
73980;SDS011;62348;51.412;5.436;2023-06-22T06:05:58;19.25;;;16.83;;
73980;SDS011;62348;51.412;5.436;2023-06-22T06:08:23;28.63;;;17.00;;
73980;SDS011;62348;51.412;5.436;2023-06-22T06:10:48;21.58;;;17.10;;
73980;SDS011;62348;51.412;5.436;2023-06-22T06:13:14;19.83;;;16.90;;
73980;SDS011;62348;51.412;5.436;2023-06-22T06:15:39;22.75;;;17.23;;
73980;SDS011;62348;51.412;5.436;2023-06-22T06:18:05;22.33;;;17.95;;
73980;SDS011;62348;51.412;5.436;2023-06-22T06:20:31;21.67;;;16.15;;
73980;SDS011;62348;51.412;5.436;2023-06-22T06:22:57;19.83;;;17.13;;
73980;SDS011;62348;51.412;5.436;2023-06-22T06:25:23;17.98;;;16.13;;
73980;SDS011;62348;51.412;5.436;2023-06-22T06:27:49;18.60;;;16.70;;
73980;SDS011;62348;51.412;5.436;2023-06-22T06:30:17;20.45;;;17.45;;
73980;SDS011;62348;51.412;5.436;2023-06-22T06:32:43;19.02;;;16.95;;
73980;SDS011;62348;51.412;5.436;2023-06-22T06:35:11;19.42;;;17.40;;
73980;SDS011;62348;51.412;5.436;2023-06-22T06:37:37;20.23;;;18.08;;
73980;SDS011;62348;51.412;5.436;2023-06-22T06:40:07;20.98;;;18.70;;
73980;SDS011;62348;51.412;5.436;2023-06-22T06:42:35;21.67;;;18.63;;
73980;SDS011;62348;51.412;5.436;2023-06-22T06:45:05;19.95;;;18.00;;
73980;SDS011;62348;51.412;5.436;2023-06-22T06:47:31;22.58;;;18.27;;
73980;SDS011;62348;51.412;5.436;2023-06-22T06:49:57;20.73;;;18.52;;
73980;SDS011;62348;51.412;5.436;2023-06-22T06:52:22;20.30;;;17.63;;
73980;SDS011;62348;51.412;5.436;2023-06-22T06:54:48;19.88;;;17.73;;
73980;SDS011;62348;51.412;5.436;2023-06-22T06:57:13;21.25;;;18.38;;
73980;SDS011;62348;51.412;5.436;2023-06-22T06:59:40;21.38;;;17.52;;
73980;SDS011;62348;51.412;5.436;2023-06-22T07:02:06;22.13;;;17.50;;
73980;SDS011;62348;51.412;5.436;2023-06-22T07:04:32;23.15;;;18.42;;
73980;SDS011;62348;51.412;5.436;2023-06-22T07:06:58;20.90;;;18.23;;
73980;SDS011;62348;51.412;5.436;2023-06-22T07:09:26;20.92;;;18.58;;
73980;SDS011;62348;51.412;5.436;2023-06-22T07:11:51;20.27;;;17.48;;
73980;SDS011;62348;51.412;5.436;2023-06-22T07:14:16;24.98;;;19.60;;
73980;SDS011;62348;51.412;5.436;2023-06-22T07:16:42;25.00;;;18.88;;
73980;SDS011;62348;51.412;5.436;2023-06-22T07:19:07;21.98;;;19.58;;
73980;SDS011;62348;51.412;5.436;2023-06-22T07:21:32;23.98;;;18.38;;
73980;SDS011;62348;51.412;5.436;2023-06-22T07:23:58;21.75;;;19.40;;
73980;SDS011;62348;51.412;5.436;2023-06-22T07:26:23;24.45;;;18.48;;
73980;SDS011;62348;51.412;5.436;2023-06-22T07:28:49;24.13;;;18.15;;
73980;SDS011;62348;51.412;5.436;2023-06-22T07:31:15;21.65;;;18.73;;
73980;SDS011;62348;51.412;5.436;2023-06-22T07:33:41;20.92;;;18.45;;
73980;SDS011;62348;51.412;5.436;2023-06-22T07:36:06;20.17;;;17.95;;
73980;SDS011;62348;51.412;5.436;2023-06-22T07:38:32;19.35;;;17.08;;
73980;SDS011;62348;51.412;5.436;2023-06-22T07:40:58;20.58;;;17.02;;
73980;SDS011;62348;51.412;5.436;2023-06-22T07:43:23;21.67;;;16.35;;
73980;SDS011;62348;51.412;5.436;2023-06-22T07:45:49;18.73;;;16.13;;
73980;SDS011;62348;51.412;5.436;2023-06-22T07:48:21;22.38;;;16.92;;
73980;SDS011;62348;51.412;5.436;2023-06-22T07:50:47;19.67;;;17.23;;
73980;SDS011;62348;51.412;5.436;2023-06-22T07:53:12;18.75;;;16.77;;
73980;SDS011;62348;51.412;5.436;2023-06-22T07:55:38;20.70;;;17.05;;
73980;SDS011;62348;51.412;5.436;2023-06-22T07:58:03;18.42;;;16.38;;
73980;SDS011;62348;51.412;5.436;2023-06-22T08:00:29;24.38;;;16.08;;
73980;SDS011;62348;51.412;5.436;2023-06-22T08:02:54;19.63;;;16.20;;
73980;SDS011;62348;51.412;5.436;2023-06-22T08:05:20;18.33;;;16.10;;
73980;SDS011;62348;51.412;5.436;2023-06-22T08:07:45;20.15;;;18.10;;
73980;SDS011;62348;51.412;5.436;2023-06-22T08:10:11;19.33;;;16.90;;
73980;SDS011;62348;51.412;5.436;2023-06-22T08:12:37;20.83;;;17.13;;
73980;SDS011;62348;51.412;5.436;2023-06-22T08:15:03;19.55;;;17.45;;
73980;SDS011;62348;51.412;5.436;2023-06-22T08:17:30;21.88;;;17.58;;
73980;SDS011;62348;51.412;5.436;2023-06-22T08:19:56;20.20;;;17.98;;
73980;SDS011;62348;51.412;5.436;2023-06-22T08:22:21;23.00;;;18.08;;
73980;SDS011;62348;51.412;5.436;2023-06-22T08:24:47;19.90;;;16.83;;
73980;SDS011;62348;51.412;5.436;2023-06-22T08:27:13;20.35;;;17.50;;
73980;SDS011;62348;51.412;5.436;2023-06-22T08:29:39;18.23;;;16.27;;
73980;SDS011;62348;51.412;5.436;2023-06-22T08:32:07;22.00;;;16.83;;
73980;SDS011;62348;51.412;5.436;2023-06-22T08:34:34;21.38;;;16.73;;
73980;SDS011;62348;51.412;5.436;2023-06-22T08:36:59;17.85;;;15.82;;
73980;SDS011;62348;51.412;5.436;2023-06-22T08:39:25;25.35;;;17.20;;
73980;SDS011;62348;51.412;5.436;2023-06-22T08:41:51;20.38;;;18.17;;
73980;SDS011;62348;51.412;5.436;2023-06-22T08:44:18;18.95;;;16.45;;
73980;SDS011;62348;51.412;5.436;2023-06-22T08:46:44;19.85;;;15.68;;
73980;SDS011;62348;51.412;5.436;2023-06-22T08:49:09;20.30;;;15.75;;
73980;SDS011;62348;51.412;5.436;2023-06-22T08:51:35;20.80;;;16.90;;
73980;SDS011;62348;51.412;5.436;2023-06-22T08:54:01;18.70;;;16.63;;
73980;SDS011;62348;51.412;5.436;2023-06-22T08:56:26;18.52;;;16.63;;
73980;SDS011;62348;51.412;5.436;2023-06-22T08:58:51;19.42;;;16.98;;
73980;SDS011;62348;51.412;5.436;2023-06-22T09:01:17;21.90;;;17.48;;
73980;SDS011;62348;51.412;5.436;2023-06-22T09:03:42;21.35;;;17.60;;
73980;SDS011;62348;51.412;5.436;2023-06-22T09:06:08;20.50;;;18.30;;
73980;SDS011;62348;51.412;5.436;2023-06-22T09:08:37;19.40;;;17.13;;
73980;SDS011;62348;51.412;5.436;2023-06-22T09:11:02;23.63;;;17.95;;
73980;SDS011;62348;51.412;5.436;2023-06-22T09:13:30;20.52;;;18.38;;
73980;SDS011;62348;51.412;5.436;2023-06-22T09:15:56;23.95;;;18.58;;
73980;SDS011;62348;51.412;5.436;2023-06-22T09:18:22;18.77;;;15.32;;
73980;SDS011;62348;51.412;5.436;2023-06-22T09:20:47;18.98;;;16.98;;
73980;SDS011;62348;51.412;5.436;2023-06-22T09:23:13;22.58;;;16.55;;
73980;SDS011;62348;51.412;5.436;2023-06-22T09:25:39;20.50;;;17.20;;
73980;SDS011;62348;51.412;5.436;2023-06-22T09:28:06;22.85;;;16.50;;
73980;SDS011;62348;51.412;5.436;2023-06-22T09:30:31;17.52;;;15.23;;
73980;SDS011;62348;51.412;5.436;2023-06-22T09:32:56;20.52;;;16.83;;
73980;SDS011;62348;51.412;5.436;2023-06-22T09:35:22;20.23;;;16.70;;
73980;SDS011;62348;51.412;5.436;2023-06-22T09:37:47;17.80;;;15.90;;
73980;SDS011;62348;51.412;5.436;2023-06-22T09:40:13;21.67;;;16.35;;
73980;SDS011;62348;51.412;5.436;2023-06-22T09:42:41;21.88;;;16.58;;
73980;SDS011;62348;51.412;5.436;2023-06-22T09:45:06;19.67;;;15.80;;
73980;SDS011;62348;51.412;5.436;2023-06-22T09:47:32;17.70;;;15.82;;
73980;SDS011;62348;51.412;5.436;2023-06-22T09:49:58;21.65;;;15.55;;
73980;SDS011;62348;51.412;5.436;2023-06-22T09:52:25;18.23;;;16.33;;
73980;SDS011;62348;51.412;5.436;2023-06-22T09:54:50;21.35;;;16.23;;
73980;SDS011;62348;51.412;5.436;2023-06-22T09:57:15;20.73;;;16.27;;
73980;SDS011;62348;51.412;5.436;2023-06-22T09:59:41;19.83;;;17.73;;
73980;SDS011;62348;51.412;5.436;2023-06-22T10:02:06;18.98;;;15.38;;
73980;SDS011;62348;51.412;5.436;2023-06-22T10:04:33;17.25;;;15.40;;
73980;SDS011;62348;51.412;5.436;2023-06-22T10:06:59;20.48;;;16.75;;
73980;SDS011;62348;51.412;5.436;2023-06-22T10:09:24;17.92;;;15.82;;
73980;SDS011;62348;51.412;5.436;2023-06-22T10:11:49;19.08;;;16.20;;
73980;SDS011;62348;51.412;5.436;2023-06-22T10:14:15;19.33;;;17.10;;
73980;SDS011;62348;51.412;5.436;2023-06-22T10:16:41;17.30;;;14.95;;
73980;SDS011;62348;51.412;5.436;2023-06-22T10:19:07;17.45;;;15.75;;
73980;SDS011;62348;51.412;5.436;2023-06-22T10:21:32;19.42;;;15.82;;
73980;SDS011;62348;51.412;5.436;2023-06-22T10:23:58;20.02;;;15.60;;
73980;SDS011;62348;51.412;5.436;2023-06-22T10:26:26;18.83;;;15.38;;
73980;SDS011;62348;51.412;5.436;2023-06-22T10:28:54;17.60;;;15.88;;
73980;SDS011;62348;51.412;5.436;2023-06-22T10:31:19;20.48;;;16.77;;
73980;SDS011;62348;51.412;5.436;2023-06-22T10:33:44;17.63;;;15.65;;
73980;SDS011;62348;51.412;5.436;2023-06-22T10:36:10;18.38;;;15.73;;
73980;SDS011;62348;51.412;5.436;2023-06-22T10:38:36;21.33;;;15.85;;
73980;SDS011;62348;51.412;5.436;2023-06-22T10:41:01;18.52;;;15.60;;
73980;SDS011;62348;51.412;5.436;2023-06-22T10:43:27;18.35;;;15.93;;
73980;SDS011;62348;51.412;5.436;2023-06-22T10:45:53;20.92;;;16.95;;
73980;SDS011;62348;51.412;5.436;2023-06-22T10:48:18;22.75;;;18.17;;
73980;SDS011;62348;51.412;5.436;2023-06-22T10:50:43;24.05;;;18.55;;
73980;SDS011;62348;51.412;5.436;2023-06-22T10:53:09;23.35;;;19.90;;
73980;SDS011;62348;51.412;5.436;2023-06-22T10:55:34;26.10;;;20.75;;
73980;SDS011;62348;51.412;5.436;2023-06-22T10:58:00;22.23;;;19.92;;
73980;SDS011;62348;51.412;5.436;2023-06-22T11:00:26;22.80;;;20.42;;
73980;SDS011;62348;51.412;5.436;2023-06-22T11:02:51;23.63;;;20.50;;
73980;SDS011;62348;51.412;5.436;2023-06-22T11:05:16;24.63;;;21.13;;
73980;SDS011;62348;51.412;5.436;2023-06-22T11:07:42;24.45;;;21.83;;
73980;SDS011;62348;51.412;5.436;2023-06-22T11:10:09;28.30;;;22.33;;
73980;SDS011;62348;51.412;5.436;2023-06-22T11:12:34;24.85;;;22.10;;
73980;SDS011;62348;51.412;5.436;2023-06-22T11:14:59;24.27;;;21.20;;
73980;SDS011;62348;51.412;5.436;2023-06-22T11:17:25;28.10;;;24.13;;
73980;SDS011;62348;51.412;5.436;2023-06-22T11:19:50;34.17;;;23.20;;
73980;SDS011;62348;51.412;5.436;2023-06-22T11:22:16;26.40;;;23.58;;
73980;SDS011;62348;51.412;5.436;2023-06-22T11:24:41;25.65;;;22.58;;
73980;SDS011;62348;51.412;5.436;2023-06-22T11:27:06;29.55;;;24.48;;
73980;SDS011;62348;51.412;5.436;2023-06-22T11:29:32;30.50;;;22.92;;
73980;SDS011;62348;51.412;5.436;2023-06-22T11:31:57;29.35;;;24.92;;
73980;SDS011;62348;51.412;5.436;2023-06-22T11:34:22;26.77;;;23.55;;
73980;SDS011;62348;51.412;5.436;2023-06-22T11:36:48;27.10;;;23.42;;
73980;SDS011;62348;51.412;5.436;2023-06-22T11:39:13;27.85;;;24.27;;
73980;SDS011;62348;51.412;5.436;2023-06-22T11:41:40;29.00;;;23.77;;
73980;SDS011;62348;51.412;5.436;2023-06-22T11:44:06;29.08;;;24.75;;
73980;SDS011;62348;51.412;5.436;2023-06-22T11:46:32;30.90;;;27.27;;
73980;SDS011;62348;51.412;5.436;2023-06-22T11:48:57;31.10;;;26.67;;
73980;SDS011;62348;51.412;5.436;2023-06-22T11:51:23;31.17;;;27.73;;
73980;SDS011;62348;51.412;5.436;2023-06-22T11:53:48;32.75;;;27.50;;
73980;SDS011;62348;51.412;5.436;2023-06-22T11:56:13;34.85;;;28.55;;
73980;SDS011;62348;51.412;5.436;2023-06-22T11:58:39;30.92;;;27.63;;
73980;SDS011;62348;51.412;5.436;2023-06-22T12:01:04;32.33;;;28.92;;
73980;SDS011;62348;51.412;5.436;2023-06-22T12:03:30;32.78;;;29.25;;
73980;SDS011;62348;51.412;5.436;2023-06-22T12:05:55;32.25;;;28.00;;
73980;SDS011;62348;51.412;5.436;2023-06-22T12:08:21;31.23;;;27.83;;
73980;SDS011;62348;51.412;5.436;2023-06-22T12:10:46;29.60;;;26.50;;
73980;SDS011;62348;51.412;5.436;2023-06-22T12:13:12;31.02;;;27.33;;
73980;SDS011;62348;51.412;5.436;2023-06-22T12:15:37;33.15;;;29.73;;
73980;SDS011;62348;51.412;5.436;2023-06-22T12:18:03;29.27;;;26.25;;
73980;SDS011;62348;51.412;5.436;2023-06-22T12:20:28;28.85;;;25.83;;
73980;SDS011;62348;51.412;5.436;2023-06-22T12:22:54;29.50;;;26.40;;
73980;SDS011;62348;51.412;5.436;2023-06-22T12:25:21;29.58;;;26.48;;
73980;SDS011;62348;51.412;5.436;2023-06-22T12:27:47;30.85;;;26.98;;
73980;SDS011;62348;51.412;5.436;2023-06-22T12:30:12;31.23;;;28.02;;
73980;SDS011;62348;51.412;5.436;2023-06-22T12:32:38;31.60;;;28.30;;
73980;SDS011;62348;51.412;5.436;2023-06-22T12:35:03;32.35;;;28.95;;
73980;SDS011;62348;51.412;5.436;2023-06-22T12:37:29;34.17;;;30.67;;
73980;SDS011;62348;51.412;5.436;2023-06-22T12:39:56;33.83;;;30.20;;
73980;SDS011;62348;51.412;5.436;2023-06-22T12:42:22;35.20;;;30.52;;
73980;SDS011;62348;51.412;5.436;2023-06-22T12:44:47;33.92;;;30.20;;
73980;SDS011;62348;51.412;5.436;2023-06-22T12:47:13;34.30;;;30.70;;
73980;SDS011;62348;51.412;5.436;2023-06-22T12:49:38;31.73;;;27.60;;
73980;SDS011;62348;51.412;5.436;2023-06-22T12:52:08;32.20;;;28.75;;
73980;SDS011;62348;51.412;5.436;2023-06-22T12:54:35;33.17;;;29.60;;
73980;SDS011;62348;51.412;5.436;2023-06-22T12:57:01;31.85;;;28.52;;
73980;SDS011;62348;51.412;5.436;2023-06-22T12:59:26;30.30;;;27.05;;
73980;SDS011;62348;51.412;5.436;2023-06-22T13:01:52;28.38;;;25.48;;
73980;SDS011;62348;51.412;5.436;2023-06-22T13:04:17;27.35;;;24.52;;
73980;SDS011;62348;51.412;5.436;2023-06-22T13:06:44;26.30;;;23.60;;
73980;SDS011;62348;51.412;5.436;2023-06-22T13:09:13;26.30;;;23.60;;
73980;SDS011;62348;51.412;5.436;2023-06-22T13:11:39;27.30;;;24.15;;
73980;SDS011;62348;51.412;5.436;2023-06-22T13:14:04;25.98;;;23.35;;
73980;SDS011;62348;51.412;5.436;2023-06-22T13:16:29;26.23;;;23.67;;
73980;SDS011;62348;51.412;5.436;2023-06-22T13:18:55;27.50;;;24.23;;
73980;SDS011;62348;51.412;5.436;2023-06-22T13:21:20;27.30;;;24.33;;
73980;SDS011;62348;51.412;5.436;2023-06-22T13:23:46;26.67;;;23.95;;
73980;SDS011;62348;51.412;5.436;2023-06-22T13:26:11;27.85;;;24.98;;
73980;SDS011;62348;51.412;5.436;2023-06-22T13:28:36;27.42;;;24.60;;
73980;SDS011;62348;51.412;5.436;2023-06-22T13:31:02;26.33;;;23.50;;
73980;SDS011;62348;51.412;5.436;2023-06-22T13:33:27;25.35;;;22.77;;
73980;SDS011;62348;51.412;5.436;2023-06-22T13:35:53;24.33;;;21.92;;
73980;SDS011;62348;51.412;5.436;2023-06-22T13:38:18;23.83;;;21.27;;
73980;SDS011;62348;51.412;5.436;2023-06-22T13:40:44;26.60;;;22.92;;
73980;SDS011;62348;51.412;5.436;2023-06-22T13:43:09;24.17;;;21.63;;
73980;SDS011;62348;51.412;5.436;2023-06-22T13:45:35;23.92;;;21.52;;
73980;SDS011;62348;51.412;5.436;2023-06-22T13:48:00;24.08;;;20.77;;
73980;SDS011;62348;51.412;5.436;2023-06-22T13:50:26;24.40;;;21.65;;
73980;SDS011;62348;51.412;5.436;2023-06-22T13:52:51;22.60;;;20.20;;
73980;SDS011;62348;51.412;5.436;2023-06-22T13:55:17;22.55;;;20.25;;
73980;SDS011;62348;51.412;5.436;2023-06-22T13:57:42;22.45;;;20.25;;
73980;SDS011;62348;51.412;5.436;2023-06-22T14:00:08;22.20;;;19.92;;
73980;SDS011;62348;51.412;5.436;2023-06-22T14:02:34;22.33;;;19.85;;
73980;SDS011;62348;51.412;5.436;2023-06-22T14:05:00;22.08;;;19.70;;
73980;SDS011;62348;51.412;5.436;2023-06-22T14:07:25;21.58;;;19.42;;
73980;SDS011;62348;51.412;5.436;2023-06-22T14:09:51;25.10;;;20.92;;
73980;SDS011;62348;51.412;5.436;2023-06-22T14:12:16;22.92;;;20.02;;
73980;SDS011;62348;51.412;5.436;2023-06-22T14:14:44;22.70;;;20.40;;
73980;SDS011;62348;51.412;5.436;2023-06-22T14:17:10;25.80;;;21.30;;
73980;SDS011;62348;51.412;5.436;2023-06-22T14:19:36;22.88;;;20.42;;
73980;SDS011;62348;51.412;5.436;2023-06-22T14:22:01;22.25;;;19.95;;
73980;SDS011;62348;51.412;5.436;2023-06-22T14:24:27;23.15;;;20.85;;
73980;SDS011;62348;51.412;5.436;2023-06-22T14:26:53;25.88;;;21.10;;
73980;SDS011;62348;51.412;5.436;2023-06-22T14:29:19;23.98;;;21.58;;